sensor_id;sensor_type;location;lat;lon;timestamp;temperature;humidity
698;DHT22;331;48.414;9.938;2022-12-01T00:01:45;4.60;99.90
698;DHT22;331;48.414;9.938;2022-12-01T00:04:16;4.60;99.90
698;DHT22;331;48.414;9.938;2022-12-01T00:06:43;4.50;99.90
698;DHT22;331;48.414;9.938;2022-12-01T00:09:10;4.60;99.90
698;DHT22;331;48.414;9.938;2022-12-01T00:11:58;4.60;99.90
698;DHT22;331;48.414;9.938;2022-12-01T00:14:25;4.50;99.90
698;DHT22;331;48.414;9.938;2022-12-01T00:17:10;4.50;99.90
698;DHT22;331;48.414;9.938;2022-12-01T00:19:38;4.50;99.90
698;DHT22;331;48.414;9.938;2022-12-01T00:22:08;4.50;99.90
698;DHT22;331;48.414;9.938;2022-12-01T00:24:39;4.50;99.90
698;DHT22;331;48.414;9.938;2022-12-01T00:27:11;4.50;99.90
698;DHT22;331;48.414;9.938;2022-12-01T00:30:01;4.50;99.90
698;DHT22;331;48.414;9.938;2022-12-01T00:32:28;4.60;99.90
698;DHT22;331;48.414;9.938;2022-12-01T00:34:55;4.50;99.90
698;DHT22;331;48.414;9.938;2022-12-01T00:37:22;4.50;99.90
698;DHT22;331;48.414;9.938;2022-12-01T00:39:49;4.50;99.90
698;DHT22;331;48.414;9.938;2022-12-01T00:42:20;4.50;99.90
698;DHT22;331;48.414;9.938;2022-12-01T00:44:49;4.40;99.90
698;DHT22;331;48.414;9.938;2022-12-01T00:47:17;4.40;99.90
698;DHT22;331;48.414;9.938;2022-12-01T00:49:49;4.40;99.90
698;DHT22;331;48.414;9.938;2022-12-01T00:52:16;4.40;99.90
698;DHT22;331;48.414;9.938;2022-12-01T00:54:49;4.40;99.90
698;DHT22;331;48.414;9.938;2022-12-01T00:57:17;4.40;99.90
698;DHT22;331;48.414;9.938;2022-12-01T00:59:53;4.40;99.90
698;DHT22;331;48.414;9.938;2022-12-01T01:02:20;4.40;99.90
698;DHT22;331;48.414;9.938;2022-12-01T01:04:51;4.40;99.90
698;DHT22;331;48.414;9.938;2022-12-01T01:07:25;4.30;99.90
698;DHT22;331;48.414;9.938;2022-12-01T01:09:52;4.40;99.90
698;DHT22;331;48.414;9.938;2022-12-01T01:12:20;4.40;99.90
698;DHT22;331;48.414;9.938;2022-12-01T01:14:48;4.40;99.90
698;DHT22;331;48.414;9.938;2022-12-01T01:17:16;4.40;99.90
698;DHT22;331;48.414;9.938;2022-12-01T01:19:44;4.40;99.90
698;DHT22;331;48.414;9.938;2022-12-01T01:22:17;4.40;99.90
698;DHT22;331;48.414;9.938;2022-12-01T01:24:47;4.40;99.90
698;DHT22;331;48.414;9.938;2022-12-01T01:27:14;4.40;99.90
698;DHT22;331;48.414;9.938;2022-12-01T01:29:45;4.40;99.90
698;DHT22;331;48.414;9.938;2022-12-01T01:32:15;4.30;99.90
698;DHT22;331;48.414;9.938;2022-12-01T01:34:55;4.30;99.90
698;DHT22;331;48.414;9.938;2022-12-01T01:37:24;4.40;99.90
698;DHT22;331;48.414;9.938;2022-12-01T01:39:51;4.30;99.90
698;DHT22;331;48.414;9.938;2022-12-01T01:42:24;4.30;99.90
698;DHT22;331;48.414;9.938;2022-12-01T01:44:54;4.30;99.90
698;DHT22;331;48.414;9.938;2022-12-01T01:47:23;4.30;99.90
698;DHT22;331;48.414;9.938;2022-12-01T01:49:51;4.30;99.90
698;DHT22;331;48.414;9.938;2022-12-01T01:52:21;4.30;99.90
698;DHT22;331;48.414;9.938;2022-12-01T01:54:50;4.30;99.90
698;DHT22;331;48.414;9.938;2022-12-01T01:57:22;4.30;99.90
698;DHT22;331;48.414;9.938;2022-12-01T01:59:51;4.30;99.90
698;DHT22;331;48.414;9.938;2022-12-01T02:02:24;4.40;99.90
698;DHT22;331;48.414;9.938;2022-12-01T02:04:58;4.30;99.90
698;DHT22;331;48.414;9.938;2022-12-01T02:07:28;4.30;99.90
698;DHT22;331;48.414;9.938;2022-12-01T02:09:57;4.30;99.90
698;DHT22;331;48.414;9.938;2022-12-01T02:12:41;4.30;99.90
698;DHT22;331;48.414;9.938;2022-12-01T02:15:17;4.30;99.90
698;DHT22;331;48.414;9.938;2022-12-01T02:17:57;4.30;99.90
698;DHT22;331;48.414;9.938;2022-12-01T02:23:22;4.30;99.90
698;DHT22;331;48.414;9.938;2022-12-01T02:25:54;4.30;99.90
698;DHT22;331;48.414;9.938;2022-12-01T02:28:39;4.30;99.90
698;DHT22;331;48.414;9.938;2022-12-01T02:31:20;4.20;99.90
698;DHT22;331;48.414;9.938;2022-12-01T02:33:52;4.20;99.90
698;DHT22;331;48.414;9.938;2022-12-01T02:36:24;4.20;99.90
698;DHT22;331;48.414;9.938;2022-12-01T02:39:04;4.20;99.90
698;DHT22;331;48.414;9.938;2022-12-01T02:41:36;4.20;99.90
698;DHT22;331;48.414;9.938;2022-12-01T02:44:07;4.20;99.90
698;DHT22;331;48.414;9.938;2022-12-01T02:46:39;4.20;99.90
698;DHT22;331;48.414;9.938;2022-12-01T02:49:12;4.20;99.90
698;DHT22;331;48.414;9.938;2022-12-01T02:51:46;4.30;99.90
698;DHT22;331;48.414;9.938;2022-12-01T02:54:14;4.20;99.90
698;DHT22;331;48.414;9.938;2022-12-01T02:56:45;4.20;99.90
698;DHT22;331;48.414;9.938;2022-12-01T02:59:14;4.20;99.90
698;DHT22;331;48.414;9.938;2022-12-01T03:04:32;4.20;99.90
698;DHT22;331;48.414;9.938;2022-12-01T03:07:17;4.20;99.90
698;DHT22;331;48.414;9.938;2022-12-01T03:09:52;4.20;99.90
698;DHT22;331;48.414;9.938;2022-12-01T03:12:28;4.10;99.90
698;DHT22;331;48.414;9.938;2022-12-01T03:15:02;4.10;99.90
698;DHT22;331;48.414;9.938;2022-12-01T03:17:34;4.10;99.90
698;DHT22;331;48.414;9.938;2022-12-01T03:20:09;4.20;99.90
698;DHT22;331;48.414;9.938;2022-12-01T03:22:41;4.10;99.90
698;DHT22;331;48.414;9.938;2022-12-01T03:25:09;4.10;99.90
698;DHT22;331;48.414;9.938;2022-12-01T03:27:41;4.10;99.90
698;DHT22;331;48.414;9.938;2022-12-01T03:30:15;4.10;99.90
698;DHT22;331;48.414;9.938;2022-12-01T03:32:43;4.10;99.90
698;DHT22;331;48.414;9.938;2022-12-01T03:35:16;4.10;99.90
698;DHT22;331;48.414;9.938;2022-12-01T03:37:48;4.10;99.90
698;DHT22;331;48.414;9.938;2022-12-01T03:40:21;4.10;99.90
698;DHT22;331;48.414;9.938;2022-12-01T03:42:53;4.10;99.90
698;DHT22;331;48.414;9.938;2022-12-01T03:45:22;4.10;99.90
698;DHT22;331;48.414;9.938;2022-12-01T03:47:49;4.10;99.90
698;DHT22;331;48.414;9.938;2022-12-01T03:50:21;4.10;99.90
698;DHT22;331;48.414;9.938;2022-12-01T03:52:52;4.10;99.90
698;DHT22;331;48.414;9.938;2022-12-01T03:55:25;4.10;99.90
698;DHT22;331;48.414;9.938;2022-12-01T03:57:55;4.00;99.90
698;DHT22;331;48.414;9.938;2022-12-01T04:00:25;4.00;99.90
698;DHT22;331;48.414;9.938;2022-12-01T04:02:55;4.00;99.90
698;DHT22;331;48.414;9.938;2022-12-01T04:05:28;4.00;99.90
698;DHT22;331;48.414;9.938;2022-12-01T04:07:57;4.10;99.90
698;DHT22;331;48.414;9.938;2022-12-01T04:10:26;4.00;99.90
698;DHT22;331;48.414;9.938;2022-12-01T04:12:53;4.00;99.90
698;DHT22;331;48.414;9.938;2022-12-01T04:15:29;4.10;99.90
698;DHT22;331;48.414;9.938;2022-12-01T04:18:00;4.00;99.90
698;DHT22;331;48.414;9.938;2022-12-01T04:20:32;4.00;99.90
698;DHT22;331;48.414;9.938;2022-12-01T04:22:59;4.00;99.90
698;DHT22;331;48.414;9.938;2022-12-01T04:25:26;4.00;99.90
698;DHT22;331;48.414;9.938;2022-12-01T04:27:55;4.00;99.90
698;DHT22;331;48.414;9.938;2022-12-01T04:30:23;4.00;99.90
698;DHT22;331;48.414;9.938;2022-12-01T04:32:50;4.00;99.90
698;DHT22;331;48.414;9.938;2022-12-01T04:35:17;4.00;99.90
698;DHT22;331;48.414;9.938;2022-12-01T04:37:50;4.00;99.90
698;DHT22;331;48.414;9.938;2022-12-01T04:40:17;4.00;99.90
698;DHT22;331;48.414;9.938;2022-12-01T04:42:48;4.00;99.90
698;DHT22;331;48.414;9.938;2022-12-01T04:45:15;4.00;99.90
698;DHT22;331;48.414;9.938;2022-12-01T04:47:51;4.00;99.90
698;DHT22;331;48.414;9.938;2022-12-01T04:50:19;4.00;99.90
698;DHT22;331;48.414;9.938;2022-12-01T04:52:46;4.00;99.90
698;DHT22;331;48.414;9.938;2022-12-01T04:55:15;4.00;99.90
698;DHT22;331;48.414;9.938;2022-12-01T04:57:43;4.00;99.90
698;DHT22;331;48.414;9.938;2022-12-01T05:00:13;4.00;99.90
698;DHT22;331;48.414;9.938;2022-12-01T05:02:43;4.00;99.90
698;DHT22;331;48.414;9.938;2022-12-01T05:05:10;4.00;99.90
698;DHT22;331;48.414;9.938;2022-12-01T05:07:38;4.00;99.90
698;DHT22;331;48.414;9.938;2022-12-01T05:10:09;4.00;99.90
698;DHT22;331;48.414;9.938;2022-12-01T05:12:39;4.00;99.90
698;DHT22;331;48.414;9.938;2022-12-01T05:15:06;4.00;99.90
698;DHT22;331;48.414;9.938;2022-12-01T05:17:33;3.90;99.90
698;DHT22;331;48.414;9.938;2022-12-01T05:20:02;4.00;99.90
698;DHT22;331;48.414;9.938;2022-12-01T05:22:47;3.90;99.90
698;DHT22;331;48.414;9.938;2022-12-01T05:25:16;3.90;99.90
698;DHT22;331;48.414;9.938;2022-12-01T05:27:45;3.90;99.90
698;DHT22;331;48.414;9.938;2022-12-01T05:30:15;3.90;99.90
698;DHT22;331;48.414;9.938;2022-12-01T05:32:45;3.90;99.90
698;DHT22;331;48.414;9.938;2022-12-01T05:35:12;3.90;99.90
698;DHT22;331;48.414;9.938;2022-12-01T05:37:42;3.90;99.90
698;DHT22;331;48.414;9.938;2022-12-01T05:40:10;3.90;99.90
698;DHT22;331;48.414;9.938;2022-12-01T05:42:42;3.90;99.90
698;DHT22;331;48.414;9.938;2022-12-01T05:45:10;3.90;99.90
698;DHT22;331;48.414;9.938;2022-12-01T05:47:40;3.90;99.90
698;DHT22;331;48.414;9.938;2022-12-01T05:50:14;3.90;99.90
698;DHT22;331;48.414;9.938;2022-12-01T05:52:41;3.90;99.90
698;DHT22;331;48.414;9.938;2022-12-01T05:55:17;3.80;99.90
698;DHT22;331;48.414;9.938;2022-12-01T05:57:51;3.90;99.90
698;DHT22;331;48.414;9.938;2022-12-01T06:00:22;3.90;99.90
698;DHT22;331;48.414;9.938;2022-12-01T06:02:51;3.90;99.90
698;DHT22;331;48.414;9.938;2022-12-01T06:05:24;3.90;99.90
698;DHT22;331;48.414;9.938;2022-12-01T06:07:53;3.90;99.90
698;DHT22;331;48.414;9.938;2022-12-01T06:10:24;3.90;99.90
698;DHT22;331;48.414;9.938;2022-12-01T06:12:51;3.90;99.90
698;DHT22;331;48.414;9.938;2022-12-01T06:15:26;3.90;99.90
698;DHT22;331;48.414;9.938;2022-12-01T06:17:58;3.80;99.90
698;DHT22;331;48.414;9.938;2022-12-01T06:20:25;3.80;99.90
698;DHT22;331;48.414;9.938;2022-12-01T06:22:55;3.90;99.90
698;DHT22;331;48.414;9.938;2022-12-01T06:25:24;3.80;99.90
698;DHT22;331;48.414;9.938;2022-12-01T06:27:54;3.80;99.90
698;DHT22;331;48.414;9.938;2022-12-01T06:30:25;3.80;99.90
698;DHT22;331;48.414;9.938;2022-12-01T06:32:52;3.80;99.90
698;DHT22;331;48.414;9.938;2022-12-01T06:35:20;3.80;99.90
698;DHT22;331;48.414;9.938;2022-12-01T06:37:47;3.80;99.90
698;DHT22;331;48.414;9.938;2022-12-01T06:40:14;3.80;99.90
698;DHT22;331;48.414;9.938;2022-12-01T06:42:41;3.80;99.90
698;DHT22;331;48.414;9.938;2022-12-01T06:45:09;3.80;99.90
698;DHT22;331;48.414;9.938;2022-12-01T06:47:39;3.80;99.90
698;DHT22;331;48.414;9.938;2022-12-01T06:50:09;3.80;99.90
698;DHT22;331;48.414;9.938;2022-12-01T06:52:41;3.80;99.90
698;DHT22;331;48.414;9.938;2022-12-01T06:55:11;3.80;99.90
698;DHT22;331;48.414;9.938;2022-12-01T06:57:40;3.80;99.90
698;DHT22;331;48.414;9.938;2022-12-01T07:00:08;3.80;99.90
698;DHT22;331;48.414;9.938;2022-12-01T07:02:51;3.80;99.90
698;DHT22;331;48.414;9.938;2022-12-01T07:05:19;3.80;99.90
698;DHT22;331;48.414;9.938;2022-12-01T07:07:48;3.80;99.90
698;DHT22;331;48.414;9.938;2022-12-01T07:10:17;3.80;99.90
698;DHT22;331;48.414;9.938;2022-12-01T07:12:49;3.80;99.90
698;DHT22;331;48.414;9.938;2022-12-01T07:15:16;3.80;99.90
698;DHT22;331;48.414;9.938;2022-12-01T07:17:46;3.80;99.90
698;DHT22;331;48.414;9.938;2022-12-01T07:20:19;3.70;99.90
698;DHT22;331;48.414;9.938;2022-12-01T07:22:48;3.80;99.90
698;DHT22;331;48.414;9.938;2022-12-01T07:25:15;3.80;99.90
698;DHT22;331;48.414;9.938;2022-12-01T07:27:42;3.80;99.90
698;DHT22;331;48.414;9.938;2022-12-01T07:30:11;3.80;99.90
698;DHT22;331;48.414;9.938;2022-12-01T07:32:43;3.80;99.90
698;DHT22;331;48.414;9.938;2022-12-01T07:35:11;3.80;99.90
698;DHT22;331;48.414;9.938;2022-12-01T07:37:39;3.80;99.90
698;DHT22;331;48.414;9.938;2022-12-01T07:40:12;3.70;99.90
698;DHT22;331;48.414;9.938;2022-12-01T07:42:39;3.80;99.90
698;DHT22;331;48.414;9.938;2022-12-01T07:45:09;3.80;99.90
698;DHT22;331;48.414;9.938;2022-12-01T07:47:36;3.70;99.90
698;DHT22;331;48.414;9.938;2022-12-01T07:50:04;3.80;99.90
698;DHT22;331;48.414;9.938;2022-12-01T07:52:34;3.80;99.90
698;DHT22;331;48.414;9.938;2022-12-01T07:55:03;3.70;99.90
698;DHT22;331;48.414;9.938;2022-12-01T07:57:30;3.70;99.90
698;DHT22;331;48.414;9.938;2022-12-01T07:59:57;3.70;99.90
698;DHT22;331;48.414;9.938;2022-12-01T08:02:24;3.70;99.90
698;DHT22;331;48.414;9.938;2022-12-01T08:04:51;3.70;99.90
698;DHT22;331;48.414;9.938;2022-12-01T08:07:20;3.70;99.90
698;DHT22;331;48.414;9.938;2022-12-01T08:09:47;3.70;99.90
698;DHT22;331;48.414;9.938;2022-12-01T08:12:19;3.70;99.90
698;DHT22;331;48.414;9.938;2022-12-01T08:14:45;3.70;99.90
698;DHT22;331;48.414;9.938;2022-12-01T08:17:13;3.70;99.90
698;DHT22;331;48.414;9.938;2022-12-01T08:19:44;3.70;99.90
698;DHT22;331;48.414;9.938;2022-12-01T08:22:11;3.70;99.90
698;DHT22;331;48.414;9.938;2022-12-01T08:24:43;3.70;99.90
698;DHT22;331;48.414;9.938;2022-12-01T08:27:14;3.70;99.90
698;DHT22;331;48.414;9.938;2022-12-01T08:29:48;3.70;99.90
698;DHT22;331;48.414;9.938;2022-12-01T08:32:18;3.70;99.90
698;DHT22;331;48.414;9.938;2022-12-01T08:34:45;3.80;99.90
698;DHT22;331;48.414;9.938;2022-12-01T08:37:16;3.70;99.90
698;DHT22;331;48.414;9.938;2022-12-01T08:39:43;3.70;99.90
698;DHT22;331;48.414;9.938;2022-12-01T08:42:13;3.70;99.90
698;DHT22;331;48.414;9.938;2022-12-01T08:44:41;3.80;99.90
698;DHT22;331;48.414;9.938;2022-12-01T08:47:10;3.80;99.90
698;DHT22;331;48.414;9.938;2022-12-01T08:49:37;3.80;99.90
698;DHT22;331;48.414;9.938;2022-12-01T08:52:04;3.80;99.90
698;DHT22;331;48.414;9.938;2022-12-01T08:57:19;3.70;99.90
698;DHT22;331;48.414;9.938;2022-12-01T08:59:48;3.70;99.90
698;DHT22;331;48.414;9.938;2022-12-01T09:02:18;3.80;99.90
698;DHT22;331;48.414;9.938;2022-12-01T09:04:48;3.80;99.90
698;DHT22;331;48.414;9.938;2022-12-01T09:07:21;3.80;99.90
698;DHT22;331;48.414;9.938;2022-12-01T09:09:48;3.80;99.90
698;DHT22;331;48.414;9.938;2022-12-01T09:12:19;3.80;99.90
698;DHT22;331;48.414;9.938;2022-12-01T09:14:53;3.80;99.90
698;DHT22;331;48.414;9.938;2022-12-01T09:17:25;3.80;99.90
698;DHT22;331;48.414;9.938;2022-12-01T09:19:56;3.80;99.90
698;DHT22;331;48.414;9.938;2022-12-01T09:22:23;3.80;99.90
698;DHT22;331;48.414;9.938;2022-12-01T09:24:53;3.80;99.90
698;DHT22;331;48.414;9.938;2022-12-01T09:27:24;3.80;99.90
698;DHT22;331;48.414;9.938;2022-12-01T09:29:52;3.80;99.90
698;DHT22;331;48.414;9.938;2022-12-01T09:32:28;3.90;99.90
698;DHT22;331;48.414;9.938;2022-12-01T09:34:55;3.80;99.90
698;DHT22;331;48.414;9.938;2022-12-01T09:37:35;3.80;99.90
698;DHT22;331;48.414;9.938;2022-12-01T09:40:08;3.80;99.90
698;DHT22;331;48.414;9.938;2022-12-01T09:42:45;3.80;99.90
698;DHT22;331;48.414;9.938;2022-12-01T09:45:16;3.80;99.90
698;DHT22;331;48.414;9.938;2022-12-01T09:47:48;3.80;99.90
698;DHT22;331;48.414;9.938;2022-12-01T09:50:21;3.80;99.90
698;DHT22;331;48.414;9.938;2022-12-01T09:52:57;3.80;99.90
698;DHT22;331;48.414;9.938;2022-12-01T09:55:27;3.80;99.90
698;DHT22;331;48.414;9.938;2022-12-01T09:57:58;3.80;99.90
698;DHT22;331;48.414;9.938;2022-12-01T10:00:26;3.80;99.90
698;DHT22;331;48.414;9.938;2022-12-01T10:02:56;3.80;99.90
698;DHT22;331;48.414;9.938;2022-12-01T10:05:26;3.90;99.90
698;DHT22;331;48.414;9.938;2022-12-01T10:07:55;3.80;99.90
698;DHT22;331;48.414;9.938;2022-12-01T10:10:25;3.90;99.90
698;DHT22;331;48.414;9.938;2022-12-01T10:12:56;3.90;99.90
698;DHT22;331;48.414;9.938;2022-12-01T10:15:26;3.80;99.90
698;DHT22;331;48.414;9.938;2022-12-01T10:18:07;3.80;99.90
698;DHT22;331;48.414;9.938;2022-12-01T10:20:40;3.90;99.90
698;DHT22;331;48.414;9.938;2022-12-01T10:23:26;3.90;99.90
698;DHT22;331;48.414;9.938;2022-12-01T10:25:58;3.90;99.90
698;DHT22;331;48.414;9.938;2022-12-01T10:31:19;3.90;99.90
698;DHT22;331;48.414;9.938;2022-12-01T10:33:57;3.90;99.90
698;DHT22;331;48.414;9.938;2022-12-01T10:36:25;3.90;99.90
698;DHT22;331;48.414;9.938;2022-12-01T10:38:57;3.90;99.90
698;DHT22;331;48.414;9.938;2022-12-01T10:41:24;3.90;99.90
698;DHT22;331;48.414;9.938;2022-12-01T10:43:55;3.90;99.90
698;DHT22;331;48.414;9.938;2022-12-01T10:46:26;3.90;99.90
698;DHT22;331;48.414;9.938;2022-12-01T10:49:07;3.90;99.90
698;DHT22;331;48.414;9.938;2022-12-01T10:51:45;3.90;99.90
698;DHT22;331;48.414;9.938;2022-12-01T10:54:15;3.90;99.90
698;DHT22;331;48.414;9.938;2022-12-01T10:57:14;3.90;99.90
698;DHT22;331;48.414;9.938;2022-12-01T10:59:43;3.90;99.90
698;DHT22;331;48.414;9.938;2022-12-01T11:02:18;3.90;99.90
698;DHT22;331;48.414;9.938;2022-12-01T11:04:52;3.90;99.90
698;DHT22;331;48.414;9.938;2022-12-01T11:07:23;3.90;99.90
698;DHT22;331;48.414;9.938;2022-12-01T11:10:00;3.90;99.90
698;DHT22;331;48.414;9.938;2022-12-01T11:12:28;3.90;99.90
698;DHT22;331;48.414;9.938;2022-12-01T11:14:59;3.90;99.90
698;DHT22;331;48.414;9.938;2022-12-01T11:17:36;3.90;99.90
698;DHT22;331;48.414;9.938;2022-12-01T11:20:23;3.90;99.90
698;DHT22;331;48.414;9.938;2022-12-01T11:22:52;3.90;99.90
698;DHT22;331;48.414;9.938;2022-12-01T11:25:25;3.90;99.90
698;DHT22;331;48.414;9.938;2022-12-01T11:27:56;3.90;99.90
698;DHT22;331;48.414;9.938;2022-12-01T11:30:29;3.90;99.90
698;DHT22;331;48.414;9.938;2022-12-01T11:32:58;3.90;99.90
698;DHT22;331;48.414;9.938;2022-12-01T11:35:28;3.90;99.90
698;DHT22;331;48.414;9.938;2022-12-01T11:38:00;3.90;99.90
698;DHT22;331;48.414;9.938;2022-12-01T11:40:31;3.90;99.90
698;DHT22;331;48.414;9.938;2022-12-01T11:43:00;4.00;99.90
698;DHT22;331;48.414;9.938;2022-12-01T11:45:30;4.00;99.90
698;DHT22;331;48.414;9.938;2022-12-01T11:47:59;3.90;99.90
698;DHT22;331;48.414;9.938;2022-12-01T11:50:40;3.90;99.90
698;DHT22;331;48.414;9.938;2022-12-01T11:53:24;3.90;99.90
698;DHT22;331;48.414;9.938;2022-12-01T11:55:52;3.90;99.90
698;DHT22;331;48.414;9.938;2022-12-01T11:58:23;4.00;99.90
698;DHT22;331;48.414;9.938;2022-12-01T12:00:53;4.00;99.90
698;DHT22;331;48.414;9.938;2022-12-01T12:03:23;4.00;99.90
698;DHT22;331;48.414;9.938;2022-12-01T12:06:07;4.00;99.90
698;DHT22;331;48.414;9.938;2022-12-01T12:08:44;4.00;99.90
698;DHT22;331;48.414;9.938;2022-12-01T12:11:14;4.00;99.90
698;DHT22;331;48.414;9.938;2022-12-01T12:16:32;4.00;99.90
698;DHT22;331;48.414;9.938;2022-12-01T12:19:06;4.10;99.90
698;DHT22;331;48.414;9.938;2022-12-01T12:21:43;4.00;99.90
698;DHT22;331;48.414;9.938;2022-12-01T12:24:19;4.00;99.90
698;DHT22;331;48.414;9.938;2022-12-01T12:26:51;4.00;99.90
698;DHT22;331;48.414;9.938;2022-12-01T12:32:12;4.00;99.90
698;DHT22;331;48.414;9.938;2022-12-01T12:34:45;4.10;99.90
698;DHT22;331;48.414;9.938;2022-12-01T12:37:18;4.00;99.90
698;DHT22;331;48.414;9.938;2022-12-01T12:39:54;4.00;99.90
698;DHT22;331;48.414;9.938;2022-12-01T12:42:26;4.00;99.90
698;DHT22;331;48.414;9.938;2022-12-01T12:45:00;4.00;99.90
698;DHT22;331;48.414;9.938;2022-12-01T12:47:36;4.00;99.90
698;DHT22;331;48.414;9.938;2022-12-01T12:50:19;4.00;99.90
698;DHT22;331;48.414;9.938;2022-12-01T12:52:53;4.00;99.90
698;DHT22;331;48.414;9.938;2022-12-01T12:55:22;4.00;99.90
698;DHT22;331;48.414;9.938;2022-12-01T12:57:51;4.00;99.90
698;DHT22;331;48.414;9.938;2022-12-01T13:00:28;4.00;99.90
698;DHT22;331;48.414;9.938;2022-12-01T13:03:04;4.10;99.90
698;DHT22;331;48.414;9.938;2022-12-01T13:05:39;4.00;99.90
698;DHT22;331;48.414;9.938;2022-12-01T13:08:15;4.00;99.90
698;DHT22;331;48.414;9.938;2022-12-01T13:10:51;4.00;99.90
698;DHT22;331;48.414;9.938;2022-12-01T13:13:22;4.00;99.90
698;DHT22;331;48.414;9.938;2022-12-01T13:15:51;4.00;99.90
698;DHT22;331;48.414;9.938;2022-12-01T13:18:25;4.10;99.90
698;DHT22;331;48.414;9.938;2022-12-01T13:20:54;4.10;99.90
698;DHT22;331;48.414;9.938;2022-12-01T13:23:30;4.00;99.90
698;DHT22;331;48.414;9.938;2022-12-01T13:26:05;4.00;99.90
698;DHT22;331;48.414;9.938;2022-12-01T13:28:38;4.00;99.90
698;DHT22;331;48.414;9.938;2022-12-01T13:31:07;4.00;99.90
698;DHT22;331;48.414;9.938;2022-12-01T13:33:35;4.00;99.90
698;DHT22;331;48.414;9.938;2022-12-01T13:36:08;4.10;99.90
698;DHT22;331;48.414;9.938;2022-12-01T13:38:46;4.10;99.90
698;DHT22;331;48.414;9.938;2022-12-01T13:41:25;4.10;99.90
698;DHT22;331;48.414;9.938;2022-12-01T13:44:01;4.10;99.90
698;DHT22;331;48.414;9.938;2022-12-01T13:46:50;4.10;99.90
698;DHT22;331;48.414;9.938;2022-12-01T13:49:34;4.10;99.90
698;DHT22;331;48.414;9.938;2022-12-01T13:57:43;4.10;99.90
698;DHT22;331;48.414;9.938;2022-12-01T14:00:22;4.10;99.90
698;DHT22;331;48.414;9.938;2022-12-01T14:05:43;4.10;99.90
698;DHT22;331;48.414;9.938;2022-12-01T14:08:12;4.10;99.90
698;DHT22;331;48.414;9.938;2022-12-01T14:10:39;4.10;99.90
698;DHT22;331;48.414;9.938;2022-12-01T14:13:16;4.10;99.90
698;DHT22;331;48.414;9.938;2022-12-01T14:15:44;4.10;99.90
698;DHT22;331;48.414;9.938;2022-12-01T14:21:07;4.10;99.90
698;DHT22;331;48.414;9.938;2022-12-01T14:23:57;4.10;99.90
698;DHT22;331;48.414;9.938;2022-12-01T14:26:25;4.10;99.90
698;DHT22;331;48.414;9.938;2022-12-01T14:29:08;4.10;99.90
698;DHT22;331;48.414;9.938;2022-12-01T14:34:27;4.10;99.90
698;DHT22;331;48.414;9.938;2022-12-01T14:37:02;4.10;99.90
698;DHT22;331;48.414;9.938;2022-12-01T14:39:34;4.10;99.90
698;DHT22;331;48.414;9.938;2022-12-01T14:42:10;4.10;99.90
698;DHT22;331;48.414;9.938;2022-12-01T14:45:05;4.10;99.90
698;DHT22;331;48.414;9.938;2022-12-01T14:47:42;4.10;99.90
698;DHT22;331;48.414;9.938;2022-12-01T14:50:12;4.10;99.90
698;DHT22;331;48.414;9.938;2022-12-01T14:52:48;4.20;99.90
698;DHT22;331;48.414;9.938;2022-12-01T14:55:17;4.10;99.90
698;DHT22;331;48.414;9.938;2022-12-01T14:57:47;4.10;99.90
698;DHT22;331;48.414;9.938;2022-12-01T15:00:18;4.10;99.90
698;DHT22;331;48.414;9.938;2022-12-01T15:02:53;4.20;99.90
698;DHT22;331;48.414;9.938;2022-12-01T15:05:23;4.10;99.90
698;DHT22;331;48.414;9.938;2022-12-01T15:07:55;4.20;99.90
698;DHT22;331;48.414;9.938;2022-12-01T15:10:23;4.10;99.90
698;DHT22;331;48.414;9.938;2022-12-01T15:12:50;4.20;99.90
698;DHT22;331;48.414;9.938;2022-12-01T15:15:28;4.20;99.90
698;DHT22;331;48.414;9.938;2022-12-01T15:18:01;4.20;99.90
698;DHT22;331;48.414;9.938;2022-12-01T15:20:49;4.20;99.90
698;DHT22;331;48.414;9.938;2022-12-01T15:23:21;4.20;99.90
698;DHT22;331;48.414;9.938;2022-12-01T15:25:55;4.20;99.90
698;DHT22;331;48.414;9.938;2022-12-01T15:28:32;4.20;99.90
698;DHT22;331;48.414;9.938;2022-12-01T15:31:09;4.20;99.90
698;DHT22;331;48.414;9.938;2022-12-01T15:33:49;4.20;99.90
698;DHT22;331;48.414;9.938;2022-12-01T15:36:17;4.20;99.90
698;DHT22;331;48.414;9.938;2022-12-01T15:38:49;4.20;99.90
698;DHT22;331;48.414;9.938;2022-12-01T15:41:19;4.20;99.90
698;DHT22;331;48.414;9.938;2022-12-01T15:43:56;4.20;99.90
698;DHT22;331;48.414;9.938;2022-12-01T15:46:32;4.20;99.90
698;DHT22;331;48.414;9.938;2022-12-01T15:49:14;4.30;99.90
698;DHT22;331;48.414;9.938;2022-12-01T15:51:45;4.20;99.90
698;DHT22;331;48.414;9.938;2022-12-01T15:54:15;4.20;99.90
698;DHT22;331;48.414;9.938;2022-12-01T15:56:49;4.30;99.90
698;DHT22;331;48.414;9.938;2022-12-01T15:59:21;4.30;99.90
698;DHT22;331;48.414;9.938;2022-12-01T16:02:02;4.30;99.90
698;DHT22;331;48.414;9.938;2022-12-01T16:04:41;4.30;99.90
698;DHT22;331;48.414;9.938;2022-12-01T16:07:13;4.30;99.90
698;DHT22;331;48.414;9.938;2022-12-01T16:09:54;4.30;99.90
698;DHT22;331;48.414;9.938;2022-12-01T16:12:22;4.30;99.90
698;DHT22;331;48.414;9.938;2022-12-01T16:14:53;4.30;99.90
698;DHT22;331;48.414;9.938;2022-12-01T16:17:22;4.30;99.90
698;DHT22;331;48.414;9.938;2022-12-01T16:22:37;4.30;99.90
698;DHT22;331;48.414;9.938;2022-12-01T16:25:05;4.30;99.90
698;DHT22;331;48.414;9.938;2022-12-01T16:27:33;4.30;99.90
698;DHT22;331;48.414;9.938;2022-12-01T16:30:17;4.30;99.90
698;DHT22;331;48.414;9.938;2022-12-01T16:32:47;4.30;99.90
698;DHT22;331;48.414;9.938;2022-12-01T16:35:24;4.30;99.90
698;DHT22;331;48.414;9.938;2022-12-01T16:37:59;4.30;99.90
698;DHT22;331;48.414;9.938;2022-12-01T16:40:26;4.30;99.90
698;DHT22;331;48.414;9.938;2022-12-01T16:42:59;4.30;99.90
698;DHT22;331;48.414;9.938;2022-12-01T16:45:26;4.30;99.90
698;DHT22;331;48.414;9.938;2022-12-01T16:47:55;4.30;99.90
698;DHT22;331;48.414;9.938;2022-12-01T16:50:30;4.30;99.90
698;DHT22;331;48.414;9.938;2022-12-01T16:53:03;4.30;99.90
698;DHT22;331;48.414;9.938;2022-12-01T16:55:41;4.30;99.90
698;DHT22;331;48.414;9.938;2022-12-01T16:58:08;4.30;99.90
698;DHT22;331;48.414;9.938;2022-12-01T17:00:35;4.30;99.90
698;DHT22;331;48.414;9.938;2022-12-01T17:03:03;4.30;99.90
698;DHT22;331;48.414;9.938;2022-12-01T17:05:30;4.30;99.90
698;DHT22;331;48.414;9.938;2022-12-01T17:08:05;4.30;99.90
698;DHT22;331;48.414;9.938;2022-12-01T17:10:38;4.30;99.90
698;DHT22;331;48.414;9.938;2022-12-01T17:13:13;4.30;99.90
698;DHT22;331;48.414;9.938;2022-12-01T17:15:41;4.40;99.90
698;DHT22;331;48.414;9.938;2022-12-01T17:18:13;4.40;99.90
698;DHT22;331;48.414;9.938;2022-12-01T17:20:41;4.30;99.90
698;DHT22;331;48.414;9.938;2022-12-01T17:23:08;4.30;99.90
698;DHT22;331;48.414;9.938;2022-12-01T17:25:44;4.40;99.90
698;DHT22;331;48.414;9.938;2022-12-01T17:28:15;4.40;99.90
698;DHT22;331;48.414;9.938;2022-12-01T17:30:47;4.40;99.90
698;DHT22;331;48.414;9.938;2022-12-01T17:33:19;4.40;99.90
698;DHT22;331;48.414;9.938;2022-12-01T17:35:51;4.40;99.90
698;DHT22;331;48.414;9.938;2022-12-01T17:38:18;4.40;99.90
698;DHT22;331;48.414;9.938;2022-12-01T17:40:45;4.40;99.90
698;DHT22;331;48.414;9.938;2022-12-01T17:43:29;4.40;99.90
698;DHT22;331;48.414;9.938;2022-12-01T17:46:03;4.40;99.90
698;DHT22;331;48.414;9.938;2022-12-01T17:48:46;4.40;99.90
698;DHT22;331;48.414;9.938;2022-12-01T17:51:18;4.40;99.90
698;DHT22;331;48.414;9.938;2022-12-01T17:53:45;4.40;99.90
698;DHT22;331;48.414;9.938;2022-12-01T17:56:15;4.40;99.90